Doak Springs, Texas
Current Conditions -  °F | °C
As of 1:55 PM on Friday 19 Dec 2014 (Local Time) from KGYB Reporting Station
Broken Clouds Broken Clouds  
Wind Chill: 59°   Ceiling: 1700
Heat Index: 59°   Visibility: 10mi
Dew Point: 52°   Wind: 10mph
Humidity: 76%   Direction: 30°NNE
Pressure: 30.09"   Gusts: NA
Location:  30.3175°N, 96.9747°W
Report Text: KGYB 191955Z AUTO 03009KT 10SM BKN017 BKN110 15/11 A3009 RMK AO2 T01520109
Loading
Personal Weather Stations






























Interactive Weather Map New forecast layout! Learn more

10-Day Weather Forecast

Advertisements
Track Severe Weather on mobile